ELY03 LLBG-UKBB
Flight info
| Callsign | ELY03 |
|---|---|
| Flight time | N/A |
| Altitude | 37999 |
| Route | LLBG/26 N0443F380 PIDE1E MERVA N131 DOREN UA28 MUT UL621 BUK UM861 RAKUR/K0815F380 M861 ROMOK M856 LAROM M435 MIMKO T219 TEPLO/K0824F390 T219 KONIP KONI4U UKBB/18L |
| Aircraft | A320/M-V/N |
Departure
| Time | N/A |
|---|---|
| Airport | Ben Gurion International Airport (LLBG) |
Arrival
| Time | 2026-05-01 11:31 |
|---|---|
| Airport | Boryspil International Airport (UKBB) |
| Time | Latitude | Longitude | Altitude | Speed | Heading |
|---|---|---|---|---|---|
| 2026-05-01 10:09 | 42.64922 | 32.01831 | 38001 ft | 448 kts | 341° |
| 2026-05-01 10:09 | 42.67831 | 32.00464 | 38001 ft | 448 kts | 341° |
| 2026-05-01 10:10 | 42.73721 | 31.97693 | 38001 ft | 448 kts | 340° |
| 2026-05-01 10:10 | 42.82632 | 31.93894 | 38000 ft | 448 kts | 347° |
| 2026-05-01 10:11 | 42.88694 | 31.91953 | 37999 ft | 448 kts | 346° |
| 2026-05-01 10:11 | 42.94752 | 31.89991 | 38000 ft | 448 kts | 346° |
| 2026-05-01 10:12 | 42.99793 | 31.88358 | 37999 ft | 448 kts | 346° |
| 2026-05-01 10:13 | 43.09913 | 31.85074 | 38000 ft | 448 kts | 346° |
| 2026-05-01 10:13 | 43.15941 | 31.83114 | 38001 ft | 448 kts | 346° |
| 2026-05-01 10:14 | 43.25037 | 31.80147 | 38001 ft | 448 kts | 346° |
| 2026-05-01 10:14 | 43.31103 | 31.78164 | 38001 ft | 448 kts | 346° |
| 2026-05-01 10:15 | 43.37168 | 31.76177 | 38001 ft | 448 kts | 346° |
| 2026-05-01 10:15 | 43.43229 | 31.74187 | 38001 ft | 448 kts | 346° |
| 2026-05-01 10:16 | 43.49295 | 31.72188 | 38001 ft | 448 kts | 346° |
| 2026-05-01 10:17 | 43.58378 | 31.69126 | 38001 ft | 448 kts | 346° |
| 2026-05-01 10:17 | 43.67455 | 31.66058 | 38001 ft | 448 kts | 346° |
| 2026-05-01 10:18 | 43.76499 | 31.62996 | 38001 ft | 448 kts | 346° |
| 2026-05-01 10:19 | 43.82553 | 31.60941 | 38001 ft | 448 kts | 346° |
| 2026-05-01 10:19 | 43.88604 | 31.58882 | 38001 ft | 448 kts | 346° |
| 2026-05-01 10:20 | 43.97686 | 31.55785 | 38000 ft | 448 kts | 346° |
| 2026-05-01 10:20 | 44.03734 | 31.53716 | 38001 ft | 448 kts | 346° |
| 2026-05-01 10:21 | 44.12818 | 31.50602 | 38000 ft | 448 kts | 346° |
| 2026-05-01 10:22 | 44.21889 | 31.47482 | 38000 ft | 448 kts | 346° |
| 2026-05-01 10:23 | 44.30972 | 31.44669 | 37999 ft | 448 kts | 353° |
| 2026-05-01 10:23 | 44.40284 | 31.44150 | 37998 ft | 448 kts | 358° |
| 2026-05-01 10:24 | 44.52754 | 31.43815 | 37999 ft | 448 kts | 359° |
| 2026-05-01 10:25 | 44.65237 | 31.43514 | 38001 ft | 448 kts | 359° |
| 2026-05-01 10:26 | 44.71440 | 31.43365 | 38001 ft | 448 kts | 359° |
| 2026-05-01 10:27 | 44.83918 | 31.43063 | 38002 ft | 448 kts | 359° |
| 2026-05-01 10:28 | 44.93285 | 31.42836 | 38002 ft | 448 kts | 359° |
| 2026-05-01 10:28 | 45.02657 | 31.42608 | 38002 ft | 448 kts | 359° |
| 2026-05-01 10:29 | 45.11964 | 31.42381 | 38002 ft | 448 kts | 359° |
| 2026-05-01 10:30 | 45.24441 | 31.42075 | 38002 ft | 448 kts | 359° |
| 2026-05-01 10:31 | 45.35868 | 31.41794 | 38000 ft | 448 kts | 359° |
| 2026-05-01 10:32 | 45.45208 | 31.41495 | 38000 ft | 448 kts | 357° |
| 2026-05-01 10:33 | 45.57673 | 31.40775 | 38000 ft | 448 kts | 357° |
| 2026-05-01 10:34 | 45.66988 | 31.40270 | 38000 ft | 448 kts | 358° |
| 2026-05-01 10:34 | 45.73229 | 31.39933 | 38000 ft | 448 kts | 358° |
| 2026-05-01 10:35 | 45.82502 | 31.39431 | 38000 ft | 448 kts | 358° |
| 2026-05-01 10:35 | 45.88733 | 31.39093 | 38000 ft | 448 kts | 358° |
| 2026-05-01 10:36 | 45.98077 | 31.38585 | 38000 ft | 448 kts | 358° |
| 2026-05-01 10:37 | 46.04267 | 31.38248 | 38001 ft | 448 kts | 358° |
| 2026-05-01 10:37 | 46.13623 | 31.37736 | 38001 ft | 448 kts | 358° |
| 2026-05-01 10:38 | 46.19857 | 31.37395 | 38001 ft | 448 kts | 358° |
| 2026-05-01 10:38 | 46.26095 | 31.37052 | 38001 ft | 448 kts | 358° |
| 2026-05-01 10:39 | 46.32328 | 31.36708 | 38001 ft | 448 kts | 358° |
| 2026-05-01 10:39 | 46.38557 | 31.36365 | 38001 ft | 448 kts | 358° |
| 2026-05-01 10:40 | 46.44794 | 31.36020 | 38001 ft | 448 kts | 358° |
| 2026-05-01 10:40 | 46.51029 | 31.35674 | 38001 ft | 448 kts | 358° |
| 2026-05-01 10:41 | 46.57225 | 31.35329 | 38001 ft | 448 kts | 358° |
| 2026-05-01 10:42 | 46.66584 | 31.34808 | 38000 ft | 448 kts | 358° |
| 2026-05-01 10:42 | 46.72826 | 31.34459 | 38000 ft | 448 kts | 358° |
| 2026-05-01 10:43 | 46.79023 | 31.34111 | 37999 ft | 448 kts | 358° |
| 2026-05-01 10:43 | 46.85257 | 31.33761 | 37998 ft | 448 kts | 357° |
| 2026-05-01 10:44 | 46.91483 | 31.33411 | 37998 ft | 448 kts | 357° |
| 2026-05-01 10:44 | 46.97716 | 31.33059 | 37999 ft | 448 kts | 357° |
| 2026-05-01 10:45 | 47.03954 | 31.32706 | 37998 ft | 448 kts | 357° |
| 2026-05-01 10:45 | 47.10188 | 31.32353 | 37999 ft | 448 kts | 357° |
| 2026-05-01 10:46 | 47.16422 | 31.31999 | 37999 ft | 448 kts | 357° |
| 2026-05-01 10:46 | 47.22624 | 31.31645 | 37999 ft | 448 kts | 357° |
| 2026-05-01 10:47 | 47.28869 | 31.31289 | 37999 ft | 449 kts | 357° |
| 2026-05-01 10:47 | 47.35109 | 31.30932 | 38001 ft | 449 kts | 357° |
| 2026-05-01 10:48 | 47.41354 | 31.30574 | 38000 ft | 449 kts | 357° |
| 2026-05-01 10:48 | 47.47524 | 31.30219 | 38000 ft | 449 kts | 357° |
| 2026-05-01 10:49 | 47.53840 | 31.29855 | 38003 ft | 449 kts | 357° |
| 2026-05-01 10:49 | 47.60082 | 31.29494 | 38005 ft | 449 kts | 357° |
| 2026-05-01 10:50 | 47.66330 | 31.29132 | 38004 ft | 449 kts | 357° |
| 2026-05-01 10:50 | 47.72534 | 31.28772 | 38002 ft | 449 kts | 357° |
| 2026-05-01 10:51 | 47.78778 | 31.28409 | 38000 ft | 449 kts | 357° |
| 2026-05-01 10:51 | 47.85018 | 31.28045 | 37999 ft | 449 kts | 357° |
| 2026-05-01 10:52 | 47.91262 | 31.27680 | 37997 ft | 449 kts | 357° |
| 2026-05-01 10:52 | 47.97496 | 31.27315 | 37997 ft | 449 kts | 357° |
| 2026-05-01 10:53 | 48.03739 | 31.26948 | 37998 ft | 449 kts | 357° |
| 2026-05-01 10:53 | 48.09979 | 31.26582 | 37997 ft | 449 kts | 357° |
| 2026-05-01 10:54 | 48.16183 | 31.26217 | 37996 ft | 449 kts | 357° |
| 2026-05-01 10:54 | 48.22424 | 31.25848 | 37997 ft | 449 kts | 357° |
| 2026-05-01 10:55 | 48.28664 | 31.25479 | 37997 ft | 449 kts | 357° |
| 2026-05-01 10:55 | 48.34913 | 31.25109 | 37997 ft | 449 kts | 357° |
| 2026-05-01 10:56 | 48.41168 | 31.24737 | 37998 ft | 449 kts | 357° |
| 2026-05-01 10:56 | 48.47409 | 31.24365 | 38000 ft | 449 kts | 357° |
| 2026-05-01 10:57 | 48.53627 | 31.23994 | 38000 ft | 449 kts | 357° |
| 2026-05-01 10:57 | 48.59872 | 31.23620 | 38001 ft | 449 kts | 357° |
| 2026-05-01 10:58 | 48.66129 | 31.23244 | 38003 ft | 450 kts | 357° |
| 2026-05-01 10:58 | 48.72380 | 31.22868 | 38002 ft | 450 kts | 357° |
| 2026-05-01 10:59 | 48.78633 | 31.22490 | 38004 ft | 450 kts | 357° |
| 2026-05-01 10:59 | 48.84889 | 31.22099 | 38003 ft | 450 kts | 357° |
| 2026-05-01 11:00 | 48.91148 | 31.21728 | 38002 ft | 450 kts | 357° |
| 2026-05-01 11:00 | 48.97402 | 31.21352 | 38001 ft | 450 kts | 357° |
| 2026-05-01 11:01 | 49.03659 | 31.21374 | 38000 ft | 450 kts | 5° |
| 2026-05-01 11:01 | 49.09830 | 31.22945 | 37998 ft | 450 kts | 12° |
| 2026-05-01 11:02 | 49.15940 | 31.25004 | 37999 ft | 450 kts | 12° |
| 2026-05-01 11:02 | 49.22055 | 31.27059 | 38000 ft | 450 kts | 12° |
| 2026-05-01 11:03 | 49.28124 | 31.29127 | 37998 ft | 450 kts | 12° |
| 2026-05-01 11:03 | 49.34235 | 31.31221 | 37889 ft | 450 kts | 12° |
| 2026-05-01 11:03 | 49.37290 | 31.32258 | 37641 ft | 449 kts | 12° |
| 2026-05-01 11:04 | 49.40350 | 31.33250 | 37391 ft | 448 kts | 11° |
| 2026-05-01 11:04 | 49.43400 | 31.34224 | 37140 ft | 448 kts | 11° |
| 2026-05-01 11:04 | 49.46455 | 31.35201 | 36623 ft | 450 kts | 11° |
| 2026-05-01 11:04 | 49.49529 | 31.36190 | 35858 ft | 453 kts | 12° |
| 2026-05-01 11:05 | 49.52634 | 31.37195 | 35059 ft | 455 kts | 12° |
| 2026-05-01 11:05 | 49.55724 | 31.38198 | 34407 ft | 453 kts | 12° |
| 2026-05-01 11:05 | 49.58817 | 31.39204 | 33649 ft | 453 kts | 12° |
| 2026-05-01 11:05 | 49.61853 | 31.40194 | 32885 ft | 453 kts | 12° |
| 2026-05-01 11:06 | 49.64950 | 31.41205 | 32036 ft | 455 kts | 12° |
| 2026-05-01 11:06 | 49.68042 | 31.42215 | 31220 ft | 456 kts | 12° |
| 2026-05-01 11:06 | 49.71146 | 31.43204 | 30394 ft | 456 kts | 9° |
| 2026-05-01 11:07 | 49.77392 | 31.43715 | 29270 ft | 443 kts | 356° |
| 2026-05-01 11:07 | 49.80443 | 31.43225 | 28662 ft | 438 kts | 353° |
| 2026-05-01 11:07 | 49.83460 | 31.42685 | 28069 ft | 434 kts | 353° |
| 2026-05-01 11:07 | 49.86450 | 31.42162 | 27470 ft | 429 kts | 353° |
| 2026-05-01 11:08 | 49.89400 | 31.41644 | 26898 ft | 425 kts | 353° |
| 2026-05-01 11:08 | 49.92325 | 31.41123 | 26316 ft | 420 kts | 353° |
| 2026-05-01 11:08 | 49.98080 | 31.40164 | 25172 ft | 412 kts | 355° |
| 2026-05-01 11:09 | 50.00922 | 31.39838 | 24607 ft | 407 kts | 356° |
| 2026-05-01 11:09 | 50.03738 | 31.39540 | 24040 ft | 403 kts | 356° |
| 2026-05-01 11:09 | 50.06524 | 31.39237 | 23475 ft | 399 kts | 355° |
| 2026-05-01 11:10 | 50.12015 | 31.38601 | 22357 ft | 392 kts | 355° |
| 2026-05-01 11:10 | 50.14684 | 31.38282 | 21813 ft | 388 kts | 355° |
| 2026-05-01 11:10 | 50.17358 | 31.37960 | 21260 ft | 384 kts | 355° |
| 2026-05-01 11:10 | 50.20014 | 31.37639 | 20710 ft | 381 kts | 355° |
| 2026-05-01 11:11 | 50.22644 | 31.37321 | 20167 ft | 377 kts | 355° |
| 2026-05-01 11:11 | 50.25246 | 31.37007 | 19624 ft | 374 kts | 355° |
| 2026-05-01 11:11 | 50.27827 | 31.36694 | 19068 ft | 370 kts | 355° |
| 2026-05-01 11:11 | 50.30386 | 31.36384 | 18540 ft | 367 kts | 355° |
| 2026-05-01 11:12 | 50.32923 | 31.36073 | 17998 ft | 364 kts | 355° |
| 2026-05-01 11:12 | 50.35436 | 31.35700 | 17471 ft | 361 kts | 348° |
| 2026-05-01 11:12 | 50.37763 | 31.34352 | 16942 ft | 356 kts | 328° |
| 2026-05-01 11:12 | 50.39620 | 31.31839 | 16427 ft | 352 kts | 308° |
| 2026-05-01 11:13 | 50.40803 | 31.28551 | 15909 ft | 348 kts | 294° |
| 2026-05-01 11:13 | 50.41782 | 31.25073 | 15519 ft | 342 kts | 293° |
| 2026-05-01 11:13 | 50.42721 | 31.21721 | 15381 ft | 328 kts | 293° |
| 2026-05-01 11:13 | 50.43624 | 31.18509 | 15261 ft | 315 kts | 294° |
| 2026-05-01 11:14 | 50.44495 | 31.15425 | 15148 ft | 302 kts | 294° |
| 2026-05-01 11:14 | 50.45330 | 31.12473 | 15043 ft | 290 kts | 294° |
| 2026-05-01 11:14 | 50.46121 | 31.09681 | 14899 ft | 280 kts | 294° |
| 2026-05-01 11:14 | 50.46920 | 31.06921 | 14632 ft | 274 kts | 299° |
| 2026-05-01 11:15 | 50.48162 | 31.04723 | 14373 ft | 269 kts | 326° |
| 2026-05-01 11:15 | 50.49910 | 31.03679 | 14126 ft | 273 kts | 354° |
| 2026-05-01 11:15 | 50.51807 | 31.03701 | 13889 ft | 272 kts | 2° |
| 2026-05-01 11:15 | 50.53686 | 31.03879 | 13632 ft | 269 kts | 3° |
| 2026-05-01 11:16 | 50.55551 | 31.04065 | 13380 ft | 268 kts | 3° |
| 2026-05-01 11:16 | 50.57415 | 31.04236 | 13051 ft | 267 kts | 2° |
| 2026-05-01 11:16 | 50.59268 | 31.04391 | 12721 ft | 265 kts | 2° |
| 2026-05-01 11:16 | 50.61105 | 31.04535 | 12390 ft | 263 kts | 2° |
| 2026-05-01 11:17 | 50.62921 | 31.04673 | 12097 ft | 259 kts | 2° |
| 2026-05-01 11:17 | 50.64735 | 31.04808 | 11955 ft | 264 kts | 2° |
| 2026-05-01 11:17 | 50.66565 | 31.04945 | 11803 ft | 262 kts | 2° |
| 2026-05-01 11:17 | 50.68385 | 31.05081 | 11653 ft | 262 kts | 2° |
| 2026-05-01 11:18 | 50.70201 | 31.05217 | 11503 ft | 261 kts | 2° |
| 2026-05-01 11:18 | 50.72017 | 31.05353 | 11351 ft | 261 kts | 2° |
| 2026-05-01 11:18 | 50.73814 | 31.05488 | 11194 ft | 254 kts | 2° |
| 2026-05-01 11:18 | 50.75546 | 31.05618 | 11040 ft | 243 kts | 2° |
| 2026-05-01 11:19 | 50.77193 | 31.05742 | 10882 ft | 232 kts | 2° |
| 2026-05-01 11:19 | 50.78767 | 31.05812 | 10725 ft | 229 kts | 353° |
| 2026-05-01 11:19 | 50.80233 | 31.04928 | 10582 ft | 228 kts | 320° |
| 2026-05-01 11:19 | 50.81165 | 31.02944 | 10431 ft | 227 kts | 288° |
| 2026-05-01 11:20 | 50.81377 | 31.00486 | 10292 ft | 227 kts | 271° |
| 2026-05-01 11:20 | 50.81401 | 30.97998 | 10139 ft | 226 kts | 270° |
| 2026-05-01 11:20 | 50.81257 | 30.95550 | 9980 ft | 225 kts | 249° |
| 2026-05-01 11:20 | 50.80753 | 30.94126 | 9871 ft | 225 kts | 228° |
| 2026-05-01 11:21 | 50.79463 | 30.92769 | 9744 ft | 226 kts | 195° |
| 2026-05-01 11:21 | 50.77963 | 30.92522 | 9589 ft | 217 kts | 182° |
| 2026-05-01 11:21 | 50.76482 | 30.92465 | 9426 ft | 209 kts | 180° |
| 2026-05-01 11:21 | 50.75047 | 30.92464 | 9274 ft | 206 kts | 180° |
| 2026-05-01 11:22 | 50.73641 | 30.92464 | 9118 ft | 198 kts | 180° |
| 2026-05-01 11:22 | 50.72289 | 30.92461 | 9040 ft | 191 kts | 180° |
| 2026-05-01 11:22 | 50.70936 | 30.92448 | 8923 ft | 196 kts | 181° |
| 2026-05-01 11:22 | 50.69578 | 30.92429 | 8771 ft | 194 kts | 181° |
| 2026-05-01 11:23 | 50.68248 | 30.92406 | 8614 ft | 187 kts | 181° |
| 2026-05-01 11:23 | 50.66982 | 30.92380 | 8462 ft | 180 kts | 181° |
| 2026-05-01 11:23 | 50.65719 | 30.92349 | 8316 ft | 182 kts | 181° |
| 2026-05-01 11:23 | 50.64456 | 30.92313 | 8165 ft | 181 kts | 181° |
| 2026-05-01 11:24 | 50.63230 | 30.92274 | 8010 ft | 172 kts | 182° |
| 2026-05-01 11:24 | 50.62091 | 30.92235 | 7833 ft | 157 kts | 182° |
| 2026-05-01 11:24 | 50.59904 | 30.92153 | 7578 ft | 157 kts | 182° |
| 2026-05-01 11:25 | 50.58811 | 30.92106 | 7422 ft | 157 kts | 182° |
| 2026-05-01 11:25 | 50.56637 | 30.92003 | 7124 ft | 156 kts | 182° |
| 2026-05-01 11:25 | 50.55553 | 30.91948 | 6975 ft | 156 kts | 182° |
| 2026-05-01 11:26 | 50.54471 | 30.91890 | 6812 ft | 156 kts | 182° |
| 2026-05-01 11:26 | 50.52313 | 30.91767 | 6326 ft | 154 kts | 183° |
| 2026-05-01 11:26 | 50.51244 | 30.91737 | 6050 ft | 153 kts | 181° |
| 2026-05-01 11:27 | 50.50181 | 30.91691 | 5768 ft | 153 kts | 183° |
| 2026-05-01 11:27 | 50.49121 | 30.91613 | 5414 ft | 152 kts | 183° |
| 2026-05-01 11:27 | 50.48071 | 30.91536 | 5051 ft | 151 kts | 183° |
| 2026-05-01 11:27 | 50.47034 | 30.91460 | 4623 ft | 151 kts | 183° |
| 2026-05-01 11:28 | 50.45980 | 30.91382 | 4178 ft | 151 kts | 183° |
| 2026-05-01 11:28 | 50.44929 | 30.91305 | 3729 ft | 151 kts | 183° |
| 2026-05-01 11:28 | 50.43879 | 30.91227 | 3277 ft | 151 kts | 183° |
| 2026-05-01 11:29 | 50.41789 | 30.91073 | 2393 ft | 149 kts | 183° |
| 2026-05-01 11:29 | 50.40780 | 30.90998 | 2113 ft | 141 kts | 183° |
| 2026-05-01 11:29 | 50.38759 | 30.90869 | 1449 ft | 145 kts | 182° |
| 2026-05-01 11:30 | 50.37756 | 30.90782 | 1046 ft | 143 kts | 179° |
| 2026-05-01 11:30 | 50.36778 | 30.90714 | 740 ft | 141 kts | 180° |
| 2026-05-01 11:30 | 50.35795 | 30.90633 | 487 ft | 141 kts | 181° |
| 2026-05-01 11:30 | 50.34880 | 30.90553 | 420 ft | 117 kts | 180° |
| 2026-05-01 11:31 | 50.34318 | 30.90519 | 414 ft | 50 kts | 182° |
| 2026-05-01 11:31 | 50.34126 | 30.90380 | 420 ft | 30 kts | 211° |
| 2026-05-01 11:31 | 50.34042 | 30.90273 | 409 ft | 9 kts | 242° |
| 2026-05-01 11:31 | 50.34067 | 30.90177 | 411 ft | 12 kts | 346° |
| 2026-05-01 11:32 | 50.34165 | 30.90183 | 413 ft | 16 kts | 3° |
| 2026-05-01 11:32 | 50.34288 | 30.90190 | 414 ft | 19 kts | 359° |
| 2026-05-01 11:32 | 50.34430 | 30.90202 | 412 ft | 22 kts | 6° |
| 2026-05-01 11:32 | 50.34591 | 30.90217 | 410 ft | 24 kts | 3° |
| 2026-05-01 11:33 | 50.34766 | 30.90224 | 409 ft | 25 kts | 2° |
| 2026-05-01 11:33 | 50.34835 | 30.90230 | 408 ft | 8 kts | 3° |
| 2026-05-01 11:33 | 50.34888 | 30.90172 | 409 ft | 12 kts | 292° |
| 2026-05-01 11:33 | 50.34882 | 30.90028 | 412 ft | 15 kts | 255° |
| 2026-05-01 11:34 | 50.34879 | 30.89873 | 414 ft | 6 kts | 271° |
| 2026-05-01 11:34 | 50.34879 | 30.89871 | 414 ft | 0 kts | 271° |